Time;durP1;ratioP1;P1;durP2;ratioP2;P2;SDS_P1;SDS_P2;PMS_P1;PMS_P2;Temp;Humidity;BMP_temperature;BMP_pressure;BME280_temperature;BME280_humidity;BME280_pressure;Samples;Min_cycle;Max_cycle;Signal;HPM_P1;HPM_P2
2022/06/17 00:02:06;;;;;;;11.17;8.13;;;;;;;17.66;69.68;102158.84;6338560;22;20420;-86
2022/06/17 00:04:34;;;;;;;10.50;7.65;;;;;;;17.72;68.63;102168.88;6339839;22;20487;-86
2022/06/17 00:07:08;;;;;;;13.80;7.55;;;;;;;17.67;66.67;102164.09;6339814;22;20428;-86
2022/06/17 00:09:39;;;;;;;10.57;7.78;;;;;;;17.65;68.67;102165.38;6339950;22;20007;-86
2022/06/17 00:12:11;;;;;;;13.65;7.50;;;;;;;17.65;68.71;102154.41;6338145;22;20010;-86
2022/06/17 00:15:11;;;;;;;9.73;7.57;;;;;;;17.60;68.63;102157.00;6339198;22;20011;-86
2022/06/17 00:17:29;;;;;;;14.20;8.23;;;;;;;17.61;69.52;102169.66;6339610;22;20011;-86
2022/06/17 00:19:57;;;;;;;8.80;7.90;;;;;;;17.50;68.41;102163.88;6338130;22;20015;-86
2022/06/17 00:22:25;;;;;;;13.20;8.73;;;;;;;17.43;69.29;102165.84;6337966;22;20046;-86
2022/06/17 00:25:01;;;;;;;11.38;8.25;;;;;;;17.38;70.24;102171.19;6339733;22;20010;-86
2022/06/17 00:27:26;;;;;;;12.73;8.20;;;;;;;17.31;69.37;102168.53;6338305;22;20014;-87
2022/06/17 00:30:00;;;;;;;10.82;8.00;;;;;;;17.36;68.54;102181.53;6339681;22;20509;-86
2022/06/17 00:32:31;;;;;;;10.70;7.50;;;;;;;17.24;68.10;102165.00;6333690;22;20023;-86
2022/06/17 00:34:56;;;;;;;12.02;7.97;;;;;;;17.22;69.40;102163.59;6308366;22;20011;-88
2022/06/17 00:37:27;;;;;;;10.60;8.18;;;;;;;17.25;69.34;102172.19;6281233;22;20328;-86
2022/06/17 00:39:53;;;;;;;12.83;8.30;;;;;;;17.18;71.57;102174.16;6308221;22;20003;-86
2022/06/17 00:42:21;;;;;;;10.90;8.70;;;;;;;17.18;72.51;102185.13;6280665;22;20069;-86
2022/06/17 00:44:57;;;;;;;11.27;8.30;;;;;;;17.18;71.79;102201.56;6255956;22;20068;-86
2022/06/17 00:47:37;;;;;;;11.80;8.43;;;;;;;17.17;72.62;102188.97;6281164;22;20007;-86
2022/06/17 00:50:15;;;;;;;12.30;7.82;;;;;;;17.10;72.00;102189.00;6280297;22;20015;-86
2022/06/17 00:52:55;;;;;;;13.43;7.95;;;;;;;17.10;70.71;102186.28;6308773;22;20007;-86
2022/06/17 00:55:36;;;;;;;11.57;7.75;;;;;;;16.99;69.61;102168.66;6281254;22;20003;-86
2022/06/17 00:58:11;;;;;;;13.63;7.55;;;;;;;17.05;69.53;102160.59;6280814;22;20050;-86
2022/06/17 01:00:40;;;;;;;10.77;7.93;;;;;;;17.11;69.16;102167.91;6308093;22;20010;-86
2022/06/17 01:03:12;;;;;;;14.32;7.63;;;;;;;17.04;69.03;102167.97;6308188;22;20030;-86
2022/06/17 01:05:47;;;;;;;10.30;7.55;;;;;;;17.02;69.78;102175.59;6307861;22;20058;-86
2022/06/17 01:11:19;;;;;;;11.80;7.95;;;;;;;16.97;72.03;102168.03;6307986;22;20084;-86
2022/06/17 01:13:54;;;;;;;9.00;8.07;;;;;;;16.92;71.45;102162.41;6307711;22;20053;-86
2022/06/17 01:16:24;;;;;;;10.23;7.60;;;;;;;16.95;71.52;102177.56;6307896;22;20003;-86
2022/06/17 01:18:51;;;;;;;9.32;7.70;;;;;;;16.89;73.24;102172.97;6280089;22;20098;-86
2022/06/17 01:21:47;;;;;;;9.40;7.65;;;;;;;16.88;71.51;102176.78;6281624;22;20500;-86
2022/06/17 01:24:14;;;;;;;12.43;7.35;;;;;;;16.87;73.08;102188.78;6277072;22;20102;-86
2022/06/17 01:26:40;;;;;;;10.87;7.50;;;;;;;16.78;74.11;102171.78;6307777;22;20010;-86
2022/06/17 01:29:20;;;;;;;10.07;7.07;;;;;;;16.75;72.28;102167.59;6280639;22;20003;-86
2022/06/17 01:31:51;;;;;;;13.00;7.78;;;;;;;16.75;73.67;102167.59;6307692;22;20026;-86
2022/06/17 01:34:18;;;;;;;10.68;8.00;;;;;;;16.70;74.36;102169.31;6307505;22;20007;-86
2022/06/17 01:36:53;;;;;;;10.77;7.97;;;;;;;16.72;75.28;102169.94;6280623;22;20111;-86
2022/06/17 01:39:19;;;;;;;13.33;7.83;;;;;;;16.64;77.09;102171.91;6308134;22;20110;-86
2022/06/17 01:41:53;;;;;;;9.30;7.10;;;;;;;16.58;76.01;102169.22;6279861;22;20318;-86
2022/06/17 01:44:25;;;;;;;10.02;7.57;;;;;;;16.59;75.34;102179.13;6307236;22;19999;-86
2022/06/17 01:46:54;;;;;;;11.27;7.88;;;;;;;16.48;76.46;102176.03;6280765;22;20006;-86
2022/06/17 01:49:48;;;;;;;11.35;8.07;;;;;;;16.45;74.06;102167.44;6280214;22;20032;-86
2022/06/17 01:52:23;;;;;;;11.10;7.80;;;;;;;16.40;75.54;102169.97;6241975;22;20003;-86
2022/06/17 01:55:05;;;;;;;12.00;8.23;;;;;;;16.45;76.21;102178.38;6280478;22;20007;-86
2022/06/17 01:57:43;;;;;;;12.35;6.97;;;;;;;16.40;76.03;102176.31;6280502;22;20008;-86
2022/06/17 02:00:18;;;;;;;10.38;7.25;;;;;;;16.34;73.93;102170.88;6280466;22;20014;-86
2022/06/17 02:02:53;;;;;;;11.18;7.68;;;;;;;16.33;73.94;102171.94;6280109;22;20010;-86
2022/06/17 02:05:21;;;;;;;11.57;8.07;;;;;;;16.40;73.86;102183.69;6307573;22;20425;-86
2022/06/17 02:07:55;;;;;;;9.40;7.13;;;;;;;16.31;73.25;102181.22;6307503;22;20011;-86
2022/06/17 02:10:27;;;;;;;10.93;7.43;;;;;;;16.20;73.71;102167.41;6280321;22;20086;-86
2022/06/17 02:12:55;;;;;;;11.32;7.50;;;;;;;16.18;73.75;102181.31;6280536;22;20011;-86
2022/06/17 02:15:22;;;;;;;12.20;7.80;;;;;;;16.10;73.98;102167.88;6307360;22;20007;-86
2022/06/17 02:17:49;;;;;;;14.03;7.77;;;;;;;16.13;73.96;102171.00;6280044;22;20041;-87
2022/06/17 02:20:17;;;;;;;9.75;7.35;;;;;;;16.03;73.91;102162.44;6279911;22;20003;-86
2022/06/17 02:22:44;;;;;;;12.20;7.90;;;;;;;15.96;73.90;102165.22;6280402;22;20010;-86
2022/06/17 02:25:15;;;;;;;17.17;7.40;;;;;;;15.99;74.13;102174.03;6279877;22;20081;-86
2022/06/17 02:27:46;;;;;;;10.32;7.35;;;;;;;16.03;74.04;102173.38;6307836;22;20441;-86
2022/06/17 02:30:12;;;;;;;12.30;7.97;;;;;;;15.98;73.69;102169.66;6280374;22;20003;-86
2022/06/17 02:32:39;;;;;;;11.25;7.78;;;;;;;16.07;74.14;102180.09;6289092;22;20018;-86
2022/06/17 02:35:19;;;;;;;15.25;8.32;;;;;;;15.97;73.64;102168.78;6336915;22;20015;-86
2022/06/17 02:37:44;;;;;;;13.35;7.82;;;;;;;15.94;74.16;102159.16;6338776;22;20003;-86
2022/06/17 02:40:40;;;;;;;9.20;7.33;;;;;;;16.04;72.82;102171.50;6336909;22;20026;-86
2022/06/17 02:43:13;;;;;;;12.70;7.93;;;;;;;16.03;74.19;102159.69;6279008;22;20436;-86
2022/06/17 02:45:43;;;;;;;12.75;8.13;;;;;;;16.05;74.09;102167.72;6337403;22;20007;-86
2022/06/17 02:48:23;;;;;;;9.43;7.85;;;;;;;16.03;72.51;102154.22;6337387;22;20007;-86
2022/06/17 02:50:50;;;;;;;10.73;7.97;;;;;;;16.02;73.52;102163.50;6337242;22;20067;-86
2022/06/17 02:53:20;;;;;;;10.80;7.60;;;;;;;16.05;72.37;102176.75;6337217;22;20007;-86
2022/06/17 02:55:45;;;;;;;13.52;8.30;;;;;;;15.99;73.72;102163.94;6337888;22;20026;-86
2022/06/17 02:58:17;;;;;;;15.77;8.60;;;;;;;15.96;73.09;102180.81;6313094;22;20417;-86
2022/06/17 03:00:43;;;;;;;12.20;7.93;;;;;;;15.86;74.38;102164.84;6338890;22;20012;-86
2022/06/17 03:03:13;;;;;;;12.43;8.68;;;;;;;15.87;74.89;102166.53;6338869;22;20072;-86
2022/06/17 03:05:42;;;;;;;11.57;7.95;;;;;;;15.87;75.97;102168.44;6338706;22;20003;-86
2022/06/17 03:08:29;;;;;;;11.82;7.90;;;;;;;15.86;74.25;102159.38;6338845;22;20031;-86
2022/06/17 03:11:00;;;;;;;12.73;8.13;;;;;;;15.85;76.81;102157.69;6338971;22;20046;-86
2022/06/17 03:13:48;;;;;;;13.25;8.50;;;;;;;15.87;76.04;102161.06;6340643;22;20007;-86
2022/06/17 03:16:15;;;;;;;11.82;8.50;;;;;;;15.87;74.50;102163.81;6339039;22;20428;-86
2022/06/17 03:18:48;;;;;;;10.32;8.35;;;;;;;15.82;74.10;102160.03;6338683;22;20420;-86
2022/06/17 03:21:20;;;;;;;9.68;7.82;;;;;;;15.83;75.08;102165.31;6338565;22;20003;-86
2022/06/17 03:23:57;;;;;;;12.77;8.07;;;;;;;15.85;73.96;102170.56;6338491;22;20013;-86
2022/06/17 03:26:28;;;;;;;10.27;8.38;;;;;;;15.90;74.04;102178.94;6338683;22;20011;-86
2022/06/17 03:28:58;;;;;;;12.05;7.55;;;;;;;15.90;74.98;102167.97;6312735;22;20022;-86
2022/06/17 03:31:49;;;;;;;11.07;7.72;;;;;;;15.95;74.02;102173.66;6338755;22;20014;-86
2022/06/17 03:34:23;;;;;;;10.63;8.48;;;;;;;16.01;76.05;102177.41;6338537;22;20361;-86
2022/06/17 03:36:55;;;;;;;12.10;8.50;;;;;;;16.08;75.50;102200.94;6338915;22;20420;-86
2022/06/17 03:39:32;;;;;;;13.63;8.60;;;;;;;16.16;75.20;102204.50;6340094;22;20010;-86
2022/06/17 03:42:10;;;;;;;12.88;7.80;;;;;;;16.20;74.42;102200.25;6340420;22;20026;-86
2022/06/17 03:44:44;;;;;;;12.52;8.85;;;;;;;16.24;73.56;102201.47;6338801;22;20030;-86
2022/06/17 03:47:36;;;;;;;9.15;8.18;;;;;;;16.39;72.12;102221.19;6338883;22;20003;-86
2022/06/17 03:50:05;;;;;;;10.47;8.20;;;;;;;16.36;73.63;102210.69;6337687;22;20010;-86
2022/06/17 03:52:37;;;;;;;13.77;8.77;;;;;;;16.50;74.12;102222.38;6338246;22;20006;-86
2022/06/17 03:55:05;;;;;;;10.60;8.43;;;;;;;16.51;73.42;102209.53;6338456;22;20011;-86
2022/06/17 03:57:32;;;;;;;13.57;9.00;;;;;;;16.59;72.76;102203.78;6340174;22;20010;-86
2022/06/17 04:00:01;;;;;;;14.20;9.25;;;;;;;16.65;70.99;102206.47;6340279;22;20002;-85
2022/06/17 04:02:39;;;;;;;15.10;8.97;;;;;;;16.76;69.99;102204.91;6338439;22;20045;-86
2022/06/17 04:05:13;;;;;;;14.73;10.45;;;;;;;16.77;68.68;102189.28;6314828;22;20003;-85
2022/06/17 04:07:46;;;;;;;12.52;9.75;;;;;;;16.88;68.56;102201.47;6338337;22;20405;-86
2022/06/17 04:10:21;;;;;;;13.65;9.93;;;;;;;16.91;68.32;102199.09;6338487;22;20042;-86
2022/06/17 04:12:49;;;;;;;14.07;9.80;;;;;;;16.92;67.76;102200.78;6338412;22;20094;-86
2022/06/17 04:15:52;;;;;;;14.63;10.10;;;;;;;16.96;67.41;102202.03;6340002;22;20040;-86
2022/06/17 04:18:20;;;;;;;13.55;10.32;;;;;;;16.93;67.65;102197.00;6329920;22;20011;-86
2022/06/17 04:20:50;;;;;;;11.57;9.93;;;;;;;16.98;67.70;102194.41;6340184;22;20010;-86
2022/06/17 04:23:29;;;;;;;12.80;9.93;;;;;;;17.10;67.47;102190.94;6338238;22;20006;-86
2022/06/17 04:26:06;;;;;;;12.68;9.50;;;;;;;17.23;67.46;102190.78;6338665;22;20324;-86
2022/06/17 04:28:41;;;;;;;14.97;10.47;;;;;;;17.20;67.20;102174.78;6338284;22;20010;-87
2022/06/17 04:31:14;;;;;;;13.07;9.38;;;;;;;17.27;67.66;102175.56;6337825;22;20052;-86
2022/06/17 04:33:48;;;;;;;12.48;9.95;;;;;;;17.34;66.93;102172.72;6338066;22;20076;-86
2022/06/17 04:36:28;;;;;;;16.33;10.00;;;;;;;17.48;66.01;102189.84;6339510;22;20003;-86
2022/06/17 04:39:20;;;;;;;14.77;9.50;;;;;;;17.55;66.29;102185.13;6337790;22;20002;-86
2022/06/17 04:41:51;;;;;;;14.77;9.90;;;;;;;17.55;65.97;102174.16;6338065;22;20056;-86
2022/06/17 04:44:20;;;;;;;14.15;9.98;;;;;;;17.61;65.26;102176.00;6337729;22;20010;-86
2022/06/17 04:46:53;;;;;;;16.77;10.00;;;;;;;17.64;65.66;102166.44;6337678;22;20003;-86
2022/06/17 04:49:22;;;;;;;14.73;10.68;;;;;;;17.62;66.26;102161.19;6339268;22;20038;-91
2022/06/17 04:51:48;;;;;;;16.38;9.98;;;;;;;17.65;65.97;102152.50;6339518;22;20448;-91
2022/06/17 04:54:17;;;;;;;12.80;9.33;;;;;;;17.74;65.35;102154.94;6339331;22;20492;-91
2022/06/17 04:56:49;;;;;;;14.32;9.30;;;;;;;17.84;64.31;102156.03;6338028;22;20059;-91
2022/06/17 04:59:33;;;;;;;14.63;9.15;;;;;;;17.98;64.24;102148.50;6338245;22;20010;-91
2022/06/17 05:02:00;;;;;;;13.25;9.52;;;;;;;18.15;63.20;102151.41;6338216;22;20010;-91
2022/06/17 05:04:28;;;;;;;14.73;9.38;;;;;;;18.37;62.10;102153.63;6338105;22;20033;-92
2022/06/17 05:06:54;;;;;;;12.60;9.00;;;;;;;18.47;62.25;102145.63;6337865;22;20007;-92
2022/06/17 05:09:34;;;;;;;17.63;9.32;;;;;;;18.63;62.26;102159.72;6339229;22;20010;-92
2022/06/17 05:12:24;;;;;;;12.82;9.10;;;;;;;18.67;61.19;102152.69;6337815;22;20085;-92
2022/06/17 05:14:57;;;;;;;16.43;8.63;;;;;;;18.70;61.01;102150.28;6337779;22;20063;-92
2022/06/17 05:17:26;;;;;;;16.27;8.98;;;;;;;18.74;60.80;102153.41;6338103;22;20023;-92
2022/06/17 05:19:54;;;;;;;19.38;9.18;;;;;;;18.83;60.85;102175.88;6336785;22;20297;-92
2022/06/17 05:22:39;;;;;;;15.57;8.40;;;;;;;18.87;60.42;102171.63;6339136;22;20006;-92
2022/06/17 05:25:11;;;;;;;10.95;8.25;;;;;;;18.81;60.46;102156.03;6336544;22;20002;-92
2022/06/17 05:27:37;;;;;;;14.03;9.00;;;;;;;18.72;59.97;102153.66;6337882;22;20051;-91
2022/06/17 05:30:06;;;;;;;11.93;7.93;;;;;;;18.84;59.82;102155.53;6339619;22;20078;-91
2022/06/17 05:32:31;;;;;;;12.30;8.40;;;;;;;18.85;59.70;102147.09;6340797;22;20102;-91
2022/06/17 05:34:59;;;;;;;14.67;8.13;;;;;;;18.87;59.02;102141.38;6341645;22;20121;-90
2022/06/17 05:37:27;;;;;;;12.27;8.13;;;;;;;19.08;58.98;102153.66;6339822;22;20081;-90
2022/06/17 05:39:54;;;;;;;12.83;8.17;;;;;;;19.34;58.47;102155.06;6339577;22;20007;-90
2022/06/17 05:42:23;;;;;;;11.75;8.15;;;;;;;19.39;58.30;102148.81;6339607;22;20003;-90
2022/06/17 05:44:51;;;;;;;14.75;7.63;;;;;;;19.50;57.66;102138.84;6337954;22;20011;-90
2022/06/17 05:47:16;;;;;;;17.30;8.00;;;;;;;19.55;56.60;102149.97;6311530;22;20015;-89
2022/06/17 05:50:11;;;;;;;;;;;;;;;;;;;;;
2022/06/17 05:53:27;;;;;;;12.85;7.13;;;;;;;19.44;57.54;102137.91;6314491;22;20488;-91
2022/06/17 05:56:41;;;;;;;16.08;7.65;;;;;;;19.49;57.53;102128.91;6323813;22;20056;-91
2022/06/17 05:59:10;;;;;;;13.57;7.47;;;;;;;19.54;58.77;102126.28;6187406;23;20390;-91
2022/06/17 06:05:08;;;;;;;15.73;6.72;;;;;;;19.92;57.09;102149.63;6065396;23;20436;-91
2022/06/17 06:08:08;;;;;;;;;;;;;;;;;;;;;
2022/06/17 06:10:39;;;;;;;12.85;6.72;;;;;;;20.10;56.62;102119.09;6065577;23;20505;-90
2022/06/17 06:13:04;;;;;;;8.93;6.20;;;;;;;20.24;56.20;102129.78;6041615;23;20021;-89
2022/06/17 06:15:30;;;;;;;10.88;6.60;;;;;;;20.38;56.39;102133.06;6108550;23;20095;-86
2022/06/17 06:17:58;;;;;;;10.40;6.60;;;;;;;20.43;55.09;102122.13;6187234;23;20001;-87
2022/06/17 06:20:24;;;;;;;8.15;5.60;;;;;;;20.53;55.03;102116.75;6186195;23;20009;-87
2022/06/17 06:22:52;;;;;;;11.20;6.03;;;;;;;20.58;54.07;102118.75;6259504;22;20018;-86
2022/06/17 06:25:23;;;;;;;9.15;5.50;;;;;;;20.59;54.00;102112.16;6337030;22;20155;-87
2022/06/17 06:27:54;;;;;;;8.30;5.47;;;;;;;20.62;53.61;102108.91;6338873;22;20029;-86
2022/06/17 06:30:24;;;;;;;7.60;5.53;;;;;;;20.82;53.46;102134.06;6337966;22;20055;-87
2022/06/17 06:33:10;;;;;;;9.13;5.30;;;;;;;20.86;54.02;102126.13;6338653;22;20018;-87
2022/06/17 06:35:41;;;;;;;8.95;5.35;;;;;;;20.92;52.84;102129.78;6337886;22;20006;-86
2022/06/17 06:38:06;;;;;;;8.95;5.35;;;;;;;21.00;52.03;102127.41;6339172;22;20031;-87
2022/06/17 06:40:40;;;;;;;9.85;5.15;;;;;;;21.08;52.23;102136.34;6339152;22;20002;-87
2022/06/17 06:43:17;;;;;;;10.03;4.73;;;;;;;21.22;51.88;102145.09;6338945;22;20098;-88
2022/06/17 06:45:54;;;;;;;8.85;4.90;;;;;;;21.16;51.76;102138.69;6339024;22;20455;-87
2022/06/17 06:48:25;;;;;;;11.25;5.75;;;;;;;21.02;52.52;102132.66;6337678;22;20087;-87
2022/06/17 06:50:55;;;;;;;11.57;5.30;;;;;;;20.90;52.58;102138.31;6340482;22;20003;-87
2022/06/17 06:53:20;;;;;;;9.00;5.60;;;;;;;20.82;51.93;102139.56;6338847;22;20009;-87
2022/06/17 06:55:51;;;;;;;10.37;5.80;;;;;;;20.70;52.80;102135.25;6337792;22;20097;-87
2022/06/17 06:58:22;;;;;;;8.55;5.80;;;;;;;20.63;53.24;102141.75;6340519;22;20013;-87
2022/06/17 07:00:56;;;;;;;9.50;5.55;;;;;;;20.73;54.25;102154.03;6338467;22;20021;-87
2022/06/17 07:03:25;;;;;;;9.63;5.90;;;;;;;20.81;53.54;102164.66;6340239;22;19999;-87
2022/06/17 07:06:04;;;;;;;9.05;5.38;;;;;;;20.88;53.76;102162.56;6340706;22;20105;-86
2022/06/17 07:08:34;;;;;;;9.98;5.40;;;;;;;20.98;53.56;102153.59;6338987;22;20003;-86
2022/06/17 07:11:00;;;;;;;11.07;5.38;;;;;;;21.07;53.36;102160.34;6338380;22;20026;-86
2022/06/17 07:13:29;;;;;;;14.57;5.03;;;;;;;21.16;52.82;102153.28;6338645;22;20420;-87
2022/06/17 07:15:58;;;;;;;10.37;5.60;;;;;;;21.11;52.95;102144.97;6340166;22;20241;-87
2022/06/17 07:18:30;;;;;;;6.80;5.15;;;;;;;21.10;52.72;102142.47;6338755;22;20076;-86
2022/06/17 07:20:59;;;;;;;9.35;5.25;;;;;;;21.01;51.92;102139.31;6338857;22;20010;-87
2022/06/17 07:23:33;;;;;;;11.63;5.15;;;;;;;20.94;51.83;102141.41;6338760;22;20003;-86
2022/06/17 07:26:02;;;;;;;7.25;4.63;;;;;;;20.94;52.43;102152.44;6337644;22;20010;-87
2022/06/17 07:28:28;;;;;;;8.87;4.77;;;;;;;20.90;51.95;102149.34;6338154;22;20005;-86
2022/06/17 07:30:56;;;;;;;8.43;4.53;;;;;;;20.90;51.69;102143.81;6338682;22;20412;-87
2022/06/17 07:33:27;;;;;;;7.38;4.15;;;;;;;20.91;51.93;102139.97;6322948;22;20015;-87
2022/06/17 07:35:59;;;;;;;5.70;4.22;;;;;;;20.98;52.23;102142.56;6308654;22;20003;-88
2022/06/17 07:41:24;;;;;;;8.17;4.43;;;;;;;20.98;51.12;102124.09;6308421;22;20081;-89
2022/06/17 07:43:59;;;;;;;6.63;4.20;;;;;;;21.06;51.47;102138.53;6277932;22;20007;-89
2022/06/17 07:46:34;;;;;;;7.82;4.57;;;;;;;21.07;51.73;102145.69;6249836;22;20039;-91
2022/06/17 07:49:02;;;;;;;5.88;4.50;;;;;;;21.13;52.05;102145.53;6249117;22;20483;-87
2022/06/17 07:51:30;;;;;;;9.90;3.95;;;;;;;21.12;52.60;102151.31;6276923;22;20007;-89
2022/06/17 07:54:04;;;;;;;9.57;4.67;;;;;;;21.21;51.86;102141.47;6224241;22;20008;-87
2022/06/17 07:56:42;;;;;;;10.40;4.40;;;;;;;21.22;51.45;102143.16;6249840;22;20094;-91
2022/06/17 07:59:17;;;;;;;;;;;;;;;;;;;;;
2022/06/17 08:01:45;;;;;;;6.78;4.43;;;;;;;21.35;51.41;102148.31;6277935;22;20087;-89
2022/06/17 08:04:13;;;;;;;7.82;3.67;;;;;;;21.43;50.89;102140.66;6278093;22;20008;-88
2022/06/17 08:06:49;;;;;;;10.13;4.13;;;;;;;21.49;51.19;102136.88;6250004;22;20447;-87
2022/06/17 08:09:26;;;;;;;7.97;4.53;;;;;;;21.50;50.11;102141.31;6250420;22;20038;-87
2022/06/17 08:11:52;;;;;;;6.53;3.80;;;;;;;21.55;50.13;102153.28;6276795;22;20003;-87
2022/06/17 08:14:20;;;;;;;7.45;3.70;;;;;;;21.66;50.79;102151.47;6277536;22;20082;-87
2022/06/17 08:16:46;;;;;;;6.13;3.63;;;;;;;21.71;50.51;102154.28;6250138;22;20426;-87
2022/06/17 08:19:13;;;;;;;6.57;3.60;;;;;;;21.84;48.79;102163.25;6249173;22;20007;-87
2022/06/17 08:21:38;;;;;;;6.03;3.67;;;;;;;21.88;49.30;102162.47;6222183;22;20091;-87
2022/06/17 08:24:08;;;;;;;8.63;3.70;;;;;;;21.95;47.13;102162.25;6224850;22;20027;-87
2022/06/17 08:26:34;;;;;;;4.68;3.20;;;;;;;21.92;46.37;102157.25;6251072;22;20035;-87
2022/06/17 08:29:02;;;;;;;4.28;3.33;;;;;;;21.98;46.60;102156.25;6250000;22;20350;-86
2022/06/17 08:31:31;;;;;;;8.88;3.40;;;;;;;21.98;46.04;102142.41;6275899;22;20000;-86
2022/06/17 08:33:58;;;;;;;6.13;3.13;;;;;;;22.11;47.28;102149.44;6290563;22;20015;-87
2022/06/17 08:36:27;;;;;;;9.00;3.40;;;;;;;22.19;45.92;102137.06;6306347;22;20010;-87
2022/06/17 08:39:07;;;;;;;6.03;3.20;;;;;;;22.32;45.77;102125.63;6307803;22;20010;-87
2022/06/17 08:41:38;;;;;;;5.82;3.25;;;;;;;22.49;45.91;102122.69;6306355;22;20003;-87
2022/06/17 08:44:13;;;;;;;7.30;3.40;;;;;;;22.62;44.54;102126.94;6306791;22;20007;-87
2022/06/17 08:46:41;;;;;;;5.38;3.00;;;;;;;22.70;44.20;102123.66;6305317;22;20007;-86
2022/06/17 08:49:44;;;;;;;7.27;3.53;;;;;;;22.79;44.51;102137.84;6307470;22;20078;-87
2022/06/17 08:52:29;;;;;;;11.63;3.40;;;;;;;22.86;44.27;102143.16;6306743;22;20094;-87
2022/06/17 08:54:57;;;;;;;7.00;3.42;;;;;;;22.98;44.03;102140.16;6305052;22;20018;-87
2022/06/17 08:57:49;;;;;;;5.50;3.17;;;;;;;23.08;43.21;102143.00;6306107;22;20011;-87
2022/06/17 09:00:36;;;;;;;7.78;3.45;;;;;;;23.10;43.64;102136.13;6306373;22;20046;-87
2022/06/17 09:03:32;;;;;;;4.83;2.80;;;;;;;23.24;42.80;102141.16;6305702;22;20031;-88
2022/06/17 09:06:29;;;;;;;11.27;3.97;;;;;;;23.28;43.59;102133.97;6306685;22;20412;-86
2022/06/17 09:09:25;;;;;;;6.63;3.50;;;;;;;23.43;42.95;102142.34;6305583;22;20447;-84
2022/06/17 09:12:18;;;;;;;5.55;3.33;;;;;;;23.58;42.18;102151.81;6307719;22;20440;-84
2022/06/17 09:14:55;;;;;;;4.55;3.22;;;;;;;23.48;41.44;102134.03;6306159;22;20031;-84
2022/06/17 09:17:37;;;;;;;7.73;2.93;;;;;;;23.56;40.94;102129.94;6304907;22;20092;-85
2022/06/17 09:20:04;;;;;;;6.78;3.55;;;;;;;23.57;41.01;102128.00;6304705;22;20010;-84
2022/06/17 09:22:38;;;;;;;5.03;3.90;;;;;;;23.62;40.67;102139.06;6279441;22;20034;-84
2022/06/17 09:25:12;;;;;;;8.48;3.30;;;;;;;23.73;41.22;102139.94;6307520;22;20082;-84
2022/06/17 09:27:43;;;;;;;9.20;4.05;;;;;;;23.77;40.78;102135.50;6305513;22;20025;-85
2022/06/17 09:30:19;;;;;;;12.97;4.13;;;;;;;23.86;40.70;102135.84;6307711;22;20049;-84
2022/06/17 09:33:13;;;;;;;9.35;4.38;;;;;;;24.04;40.30;102146.41;6304921;22;20011;-84
2022/06/17 09:35:52;;;;;;;6.93;3.83;;;;;;;24.13;40.90;102133.66;6315953;22;20042;-84
2022/06/17 09:38:27;;;;;;;7.38;3.67;;;;;;;24.34;40.87;102145.59;6307178;22;20011;-84
2022/06/17 09:41:07;;;;;;;8.50;3.67;;;;;;;24.38;39.32;102132.00;6308294;22;20007;-84
2022/06/17 09:43:40;;;;;;;7.80;3.60;;;;;;;24.35;39.09;102138.09;6306400;22;20015;-84
2022/06/17 09:46:17;;;;;;;7.25;3.10;;;;;;;24.49;40.46;102135.59;6306467;22;20006;-84
2022/06/17 09:49:14;;;;;;;6.18;3.10;;;;;;;24.68;39.88;102139.50;6306127;22;20011;-84
2022/06/17 09:51:43;;;;;;;5.70;3.35;;;;;;;24.87;38.90;102133.34;6306126;22;20057;-84
2022/06/17 09:54:28;;;;;;;7.70;3.40;;;;;;;24.88;39.47;102132.25;6306308;22;20010;-84
2022/06/17 09:57:16;;;;;;;13.90;3.50;;;;;;;24.96;39.28;102145.53;6307685;22;20018;-84
2022/06/17 09:59:46;;;;;;;4.65;2.70;;;;;;;25.06;37.78;102125.25;6307306;22;20003;-84
2022/06/17 10:02:35;;;;;;;4.35;2.80;;;;;;;25.32;37.51;102125.16;6306238;22;20003;-84
2022/06/17 10:05:12;;;;;;;3.78;2.65;;;;;;;25.28;37.69;102124.06;6307321;22;20018;-84
2022/06/17 10:07:45;;;;;;;7.25;2.60;;;;;;;25.45;37.32;102116.19;6309018;22;20144;-84
2022/06/17 10:10:30;;;;;;;8.97;2.70;;;;;;;25.58;36.90;102122.28;6308196;22;20099;-84
2022/06/17 10:13:05;;;;;;;6.53;2.70;;;;;;;25.49;36.98;102114.53;6308738;22;19999;-84
2022/06/17 10:19:05;;;;;;;5.75;3.00;;;;;;;25.68;36.85;102108.31;6309561;22;20018;-93
2022/06/17 10:21:42;;;;;;;8.32;2.80;;;;;;;25.86;36.11;102104.84;6309259;22;20080;-84
2022/06/17 10:24:20;;;;;;;6.23;2.40;;;;;;;26.17;35.52;102092.69;6307727;22;20011;-84
2022/06/17 10:26:54;;;;;;;5.40;2.30;;;;;;;26.56;34.55;102092.59;6308346;22;20007;-84
2022/06/17 10:29:38;;;;;;;3.58;2.80;;;;;;;26.80;34.11;102094.59;6307823;22;20014;-84
2022/06/17 10:32:07;;;;;;;4.30;2.58;;;;;;;26.87;33.03;102083.94;6307878;22;20007;-84
2022/06/17 10:34:44;;;;;;;7.47;2.70;;;;;;;27.04;34.17;102088.19;6307845;22;20015;-84
2022/06/17 10:37:11;;;;;;;2.67;2.30;;;;;;;27.19;33.02;102090.75;6307993;22;20015;-85
2022/06/17 10:39:39;;;;;;;5.20;2.10;;;;;;;27.30;31.71;102081.16;6309539;22;20324;-84
2022/06/17 10:42:07;;;;;;;5.03;2.45;;;;;;;27.62;31.70;102090.78;6309087;22;20003;-85
2022/06/17 10:44:33;;;;;;;9.73;2.22;;;;;;;27.86;31.66;102095.44;6309149;22;20007;-84
2022/06/17 10:47:00;;;;;;;4.10;2.40;;;;;;;27.84;31.38;102092.09;6307948;22;20015;-84
2022/06/17 10:49:33;;;;;;;3.72;2.60;;;;;;;27.89;31.88;102089.25;6307272;22;20010;-85
2022/06/17 10:52:02;;;;;;;7.53;2.30;;;;;;;27.98;31.32;102079.06;6307272;22;20004;-84
2022/06/17 10:54:31;;;;;;;4.25;2.40;;;;;;;28.03;30.67;102089.31;6309424;22;20030;-85
2022/06/17 10:57:23;;;;;;;4.83;2.47;;;;;;;28.25;31.25;102080.28;6307889;22;20014;-85
2022/06/17 10:59:49;;;;;;;3.90;2.28;;;;;;;28.32;30.82;102075.13;6309192;22;20010;-85
2022/06/17 11:02:20;;;;;;;3.23;2.03;;;;;;;28.62;31.19;102083.28;6281920;22;20090;-84
2022/06/17 11:04:54;;;;;;;7.87;2.60;;;;;;;29.11;29.51;102070.53;6306954;22;20233;-85
2022/06/17 11:07:27;;;;;;;2.78;2.20;;;;;;;29.39;28.92;102076.09;6309798;22;20437;-84
2022/06/17 11:09:57;;;;;;;2.67;2.33;;;;;;;29.43;30.09;102059.53;6309684;22;20007;-84
2022/06/17 11:12:37;;;;;;;3.90;2.65;;;;;;;29.77;29.51;102045.00;6307600;22;20010;-84
2022/06/17 11:15:24;;;;;;;2.42;2.03;;;;;;;29.94;29.53;102046.28;6309473;22;20035;-84
2022/06/17 11:17:52;;;;;;;7.43;2.40;;;;;;;30.79;28.00;102046.25;6307407;22;20029;-84
2022/06/17 11:20:24;;;;;;;6.07;2.33;;;;;;;31.82;27.10;102043.09;6307533;22;20011;-83
2022/06/17 11:23:04;;;;;;;3.80;2.40;;;;;;;33.85;24.64;102036.06;6282113;22;20069;-84
2022/06/17 11:25:40;;;;;;;2.60;2.40;;;;;;;36.07;22.56;102033.00;6309101;22;20007;-84
2022/06/17 11:28:22;;;;;;;5.13;2.60;;;;;;;37.77;21.49;102028.41;6309085;22;20010;-84
2022/06/17 11:31:11;;;;;;;2.70;2.50;;;;;;;39.52;19.17;102015.34;6308971;22;20402;-84
2022/06/17 11:33:56;;;;;;;5.78;2.80;;;;;;;40.36;16.63;102014.16;6307031;22;20077;-85
2022/06/17 11:36:21;;;;;;;3.45;2.90;;;;;;;40.77;16.49;102016.91;6307893;22;20007;-85
2022/06/17 11:38:53;;;;;;;5.13;2.87;;;;;;;41.04;16.62;102008.94;6305504;22;20090;-88
2022/06/17 11:41:33;;;;;;;4.63;2.78;;;;;;;42.04;16.12;102001.91;6306638;22;19999;-85
2022/06/17 11:44:07;;;;;;;8.55;2.53;;;;;;;42.81;14.88;102007.16;6307483;22;20013;-85
2022/06/17 11:46:35;;;;;;;5.43;2.72;;;;;;;42.85;13.20;101992.88;6306794;22;20038;-86
2022/06/17 11:49:12;;;;;;;3.47;2.90;;;;;;;43.32;14.14;102004.09;6306426;22;20321;-86
2022/06/17 11:51:47;;;;;;;6.55;3.03;;;;;;;42.02;13.87;101998.66;6307379;22;20003;-85
2022/06/17 11:54:34;;;;;;;4.47;2.80;;;;;;;42.08;15.89;101991.34;6307789;22;20018;-86
2022/06/17 11:57:17;;;;;;;3.55;2.95;;;;;;;43.30;13.22;101987.38;6308914;22;20484;-86
2022/06/17 11:59:49;;;;;;;5.28;3.40;;;;;;;42.37;13.23;101974.22;6307570;22;20011;-86
2022/06/17 12:02:18;;;;;;;6.27;3.13;;;;;;;41.99;13.68;101966.09;6308662;22;20082;-86
2022/06/17 12:04:49;;;;;;;8.93;3.13;;;;;;;42.28;14.27;101976.69;6307316;22;20015;-86
2022/06/17 12:07:56;;;;;;;4.88;3.53;;;;;;;43.29;13.00;101966.59;6308540;22;20372;-86
2022/06/17 12:10:29;;;;;;;3.40;3.10;;;;;;;42.40;14.10;101964.84;6308291;22;20057;-86